sensor_id;sensor_type;location;lat;lon;timestamp;P1;durP1;ratioP1;P2;durP2;ratioP2
12842;SDS011;35724;49.324;-123.118;2023-03-03T00:04:54;7.60;;;2.35;;
12842;SDS011;35724;49.324;-123.118;2023-03-03T00:15:10;5.80;;;2.38;;
12842;SDS011;35724;49.324;-123.118;2023-03-03T00:25:27;3.53;;;1.90;;
12842;SDS011;35724;49.324;-123.118;2023-03-03T00:35:36;3.75;;;2.20;;
12842;SDS011;35724;49.324;-123.118;2023-03-03T01:08:46;2.83;;;1.75;;
12842;SDS011;35724;49.324;-123.118;2023-03-03T01:19:25;2.17;;;1.50;;
12842;SDS011;35724;49.324;-123.118;2023-03-03T01:40:59;2.55;;;1.35;;
12842;SDS011;35724;49.324;-123.118;2023-03-03T01:51:18;3.83;;;1.52;;
12842;SDS011;35724;49.324;-123.118;2023-03-03T02:01:36;3.25;;;1.30;;
12842;SDS011;35724;49.324;-123.118;2023-03-03T02:11:54;3.05;;;1.40;;
12842;SDS011;35724;49.324;-123.118;2023-03-03T02:22:07;1.63;;;1.13;;
12842;SDS011;35724;49.324;-123.118;2023-03-03T02:43:09;1.98;;;1.20;;
12842;SDS011;35724;49.324;-123.118;2023-03-03T02:53:24;1.73;;;1.17;;
12842;SDS011;35724;49.324;-123.118;2023-03-03T03:03:49;1.90;;;1.08;;
12842;SDS011;35724;49.324;-123.118;2023-03-03T03:24:34;4.45;;;1.33;;
12842;SDS011;35724;49.324;-123.118;2023-03-03T03:34:55;2.90;;;1.23;;
12842;SDS011;35724;49.324;-123.118;2023-03-03T03:45:07;1.40;;;1.02;;
12842;SDS011;35724;49.324;-123.118;2023-03-03T03:55:23;4.65;;;1.15;;
12842;SDS011;35724;49.324;-123.118;2023-03-03T04:05:35;1.50;;;1.10;;
12842;SDS011;35724;49.324;-123.118;2023-03-03T04:16:33;2.45;;;0.90;;
12842;SDS011;35724;49.324;-123.118;2023-03-03T04:26:42;1.77;;;0.90;;
12842;SDS011;35724;49.324;-123.118;2023-03-03T04:47:36;1.60;;;0.80;;
12842;SDS011;35724;49.324;-123.118;2023-03-03T05:21:57;4.90;;;0.93;;
12842;SDS011;35724;49.324;-123.118;2023-03-03T05:32:10;1.83;;;0.98;;
12842;SDS011;35724;49.324;-123.118;2023-03-03T05:43:01;1.55;;;0.88;;
12842;SDS011;35724;49.324;-123.118;2023-03-03T05:53:13;2.22;;;0.80;;
12842;SDS011;35724;49.324;-123.118;2023-03-03T06:03:26;2.13;;;0.80;;
12842;SDS011;35724;49.324;-123.118;2023-03-03T06:13:42;2.92;;;0.98;;
12842;SDS011;35724;49.324;-123.118;2023-03-03T06:24:48;1.25;;;0.82;;
12842;SDS011;35724;49.324;-123.118;2023-03-03T06:46:42;2.40;;;0.90;;
12842;SDS011;35724;49.324;-123.118;2023-03-03T06:56:53;1.00;;;0.90;;
12842;SDS011;35724;49.324;-123.118;2023-03-03T07:18:21;1.45;;;0.90;;
12842;SDS011;35724;49.324;-123.118;2023-03-03T07:29:26;1.42;;;0.90;;
12842;SDS011;35724;49.324;-123.118;2023-03-03T07:52:57;0.93;;;0.82;;
12842;SDS011;35724;49.324;-123.118;2023-03-03T09:30:26;0.65;;;0.60;;
12842;SDS011;35724;49.324;-123.118;2023-03-03T09:54:28;1.20;;;0.90;;
12842;SDS011;35724;49.324;-123.118;2023-03-03T10:28:44;0.77;;;0.70;;
12842;SDS011;35724;49.324;-123.118;2023-03-03T10:51:17;0.65;;;0.65;;
12842;SDS011;35724;49.324;-123.118;2023-03-03T11:01:48;0.50;;;0.50;;
12842;SDS011;35724;49.324;-123.118;2023-03-03T11:12:52;1.00;;;0.82;;
12842;SDS011;35724;49.324;-123.118;2023-03-03T11:23:25;0.88;;;0.68;;
12842;SDS011;35724;49.324;-123.118;2023-03-03T11:34:51;1.40;;;0.90;;
12842;SDS011;35724;49.324;-123.118;2023-03-03T12:08:51;0.70;;;0.60;;
12842;SDS011;35724;49.324;-123.118;2023-03-03T12:19:53;0.60;;;0.60;;
12842;SDS011;35724;49.324;-123.118;2023-03-03T12:30:19;1.33;;;0.60;;
12842;SDS011;35724;49.324;-123.118;2023-03-03T12:41:05;0.82;;;0.60;;
12842;SDS011;35724;49.324;-123.118;2023-03-03T12:51:34;0.95;;;0.70;;
12842;SDS011;35724;49.324;-123.118;2023-03-03T13:01:59;0.60;;;0.60;;
12842;SDS011;35724;49.324;-123.118;2023-03-03T13:12:33;0.43;;;0.43;;
12842;SDS011;35724;49.324;-123.118;2023-03-03T13:22:56;0.73;;;0.70;;
12842;SDS011;35724;49.324;-123.118;2023-03-03T13:33:13;0.70;;;0.70;;
12842;SDS011;35724;49.324;-123.118;2023-03-03T13:43:31;0.60;;;0.60;;
12842;SDS011;35724;49.324;-123.118;2023-03-03T13:53:56;0.68;;;0.68;;
12842;SDS011;35724;49.324;-123.118;2023-03-03T14:04:24;0.75;;;0.68;;
12842;SDS011;35724;49.324;-123.118;2023-03-03T14:14:54;0.80;;;0.73;;
12842;SDS011;35724;49.324;-123.118;2023-03-03T14:36:03;0.63;;;0.60;;
12842;SDS011;35724;49.324;-123.118;2023-03-03T14:46:31;0.60;;;0.50;;
12842;SDS011;35724;49.324;-123.118;2023-03-03T14:57:49;0.70;;;0.70;;
12842;SDS011;35724;49.324;-123.118;2023-03-03T15:08:08;1.98;;;0.80;;
12842;SDS011;35724;49.324;-123.118;2023-03-03T15:18:22;0.98;;;0.90;;
12842;SDS011;35724;49.324;-123.118;2023-03-03T15:28:50;0.85;;;0.85;;
12842;SDS011;35724;49.324;-123.118;2023-03-03T15:40:48;1.98;;;0.93;;
12842;SDS011;35724;49.324;-123.118;2023-03-03T16:26:21;5.25;;;1.90;;
12842;SDS011;35724;49.324;-123.118;2023-03-03T16:36:55;4.70;;;1.70;;
12842;SDS011;35724;49.324;-123.118;2023-03-03T16:48:27;5.40;;;1.83;;
12842;SDS011;35724;49.324;-123.118;2023-03-03T16:58:50;2.78;;;1.60;;
12842;SDS011;35724;49.324;-123.118;2023-03-03T17:19:52;3.33;;;1.52;;
12842;SDS011;35724;49.324;-123.118;2023-03-03T17:30:11;3.97;;;1.70;;
12842;SDS011;35724;49.324;-123.118;2023-03-03T17:52:05;4.30;;;1.83;;
12842;SDS011;35724;49.324;-123.118;2023-03-03T18:02:40;1.95;;;1.27;;
12842;SDS011;35724;49.324;-123.118;2023-03-03T18:13:11;2.63;;;1.40;;
12842;SDS011;35724;49.324;-123.118;2023-03-03T18:23:37;2.17;;;1.25;;
12842;SDS011;35724;49.324;-123.118;2023-03-03T18:33:58;1.88;;;1.23;;
12842;SDS011;35724;49.324;-123.118;2023-03-03T18:44:29;2.58;;;1.40;;
12842;SDS011;35724;49.324;-123.118;2023-03-03T19:05:46;2.75;;;1.50;;
12842;SDS011;35724;49.324;-123.118;2023-03-03T19:16:00;2.25;;;1.52;;
12842;SDS011;35724;49.324;-123.118;2023-03-03T19:26:25;3.30;;;1.67;;
12842;SDS011;35724;49.324;-123.118;2023-03-03T19:37:01;2.72;;;1.50;;
12842;SDS011;35724;49.324;-123.118;2023-03-03T19:47:31;4.45;;;1.73;;
12842;SDS011;35724;49.324;-123.118;2023-03-03T19:58:01;2.83;;;1.50;;
12842;SDS011;35724;49.324;-123.118;2023-03-03T20:09:56;4.05;;;1.70;;
12842;SDS011;35724;49.324;-123.118;2023-03-03T20:19:59;3.17;;;1.52;;
12842;SDS011;35724;49.324;-123.118;2023-03-03T20:52:20;3.60;;;1.80;;
12842;SDS011;35724;49.324;-123.118;2023-03-03T21:38:04;2.47;;;1.60;;
12842;SDS011;35724;49.324;-123.118;2023-03-03T22:11:11;4.47;;;1.73;;
12842;SDS011;35724;49.324;-123.118;2023-03-03T22:21:32;3.55;;;1.58;;
12842;SDS011;35724;49.324;-123.118;2023-03-03T22:31:42;3.72;;;1.65;;
12842;SDS011;35724;49.324;-123.118;2023-03-03T22:41:49;2.88;;;1.77;;
12842;SDS011;35724;49.324;-123.118;2023-03-03T22:51:57;2.67;;;1.70;;
12842;SDS011;35724;49.324;-123.118;2023-03-03T23:02:06;2.60;;;1.48;;
12842;SDS011;35724;49.324;-123.118;2023-03-03T23:23:36;1.95;;;1.40;;
12842;SDS011;35724;49.324;-123.118;2023-03-03T23:34:22;3.03;;;1.50;;
12842;SDS011;35724;49.324;-123.118;2023-03-03T23:44:31;3.78;;;1.77;;
